Time;durP1;ratioP1;P1;durP2;ratioP2;P2;SDS_P1;SDS_P2;PMS_P1;PMS_P2;Temp;Humidity;BMP_temperature;BMP_pressure;BME280_temperature;BME280_humidity;BME280_pressure;Samples;Min_cycle;Max_cycle;Signal;HPM_P1;HPM_P2
2021/03/22 00:00:15;;;;;;;21.23;3.65;;;4.70;99.90;;;;;;5085296;28;20033;-67
2021/03/22 00:02:41;;;;;;;27.45;3.70;;;4.70;99.90;;;;;;5086011;28;20039;-67
2021/03/22 00:05:07;;;;;;;24.13;3.47;;;4.70;99.90;;;;;;5114636;28;20032;-66
2021/03/22 00:07:33;;;;;;;21.83;3.63;;;4.70;99.90;;;;;;5087251;28;20040;-67
2021/03/22 00:09:59;;;;;;;23.15;4.00;;;4.70;99.90;;;;;;5087861;28;20054;-67
2021/03/22 00:12:24;;;;;;;26.92;3.92;;;4.80;99.90;;;;;;5086507;28;21186;-67
2021/03/22 00:14:50;;;;;;;23.73;4.00;;;4.80;99.90;;;;;;5084929;28;20387;-67
2021/03/22 00:17:16;;;;;;;27.02;4.50;;;4.80;99.90;;;;;;5087995;28;20040;-67
2021/03/22 00:19:42;;;;;;;24.00;4.63;;;4.80;99.90;;;;;;5088525;28;20040;-67
2021/03/22 00:22:08;;;;;;;27.98;4.95;;;4.80;99.90;;;;;;5116964;27;20094;-67
2021/03/22 00:24:33;;;;;;;28.25;4.50;;;4.80;99.90;;;;;;5086431;28;20141;-67
2021/03/22 00:26:59;;;;;;;24.10;6.25;;;4.80;99.90;;;;;;5089681;28;20044;-67
2021/03/22 00:29:25;;;;;;;28.02;4.25;;;4.80;99.90;;;;;;5086356;28;20481;-67
2021/03/22 00:31:51;;;;;;;33.15;4.85;;;4.80;99.90;;;;;;5087010;28;20051;-67
2021/03/22 00:34:17;;;;;;;27.30;4.95;;;4.80;99.90;;;;;;5086397;28;20486;-67
2021/03/22 00:36:42;;;;;;;43.50;6.25;;;4.80;99.90;;;;;;5086296;28;20402;-67
2021/03/22 00:39:08;;;;;;;24.70;4.53;;;4.90;99.90;;;;;;5082091;28;20504;-68
2021/03/22 00:41:34;;;;;;;31.92;5.20;;;4.90;99.90;;;;;;5085502;28;20489;-67
2021/03/22 00:43:59;;;;;;;30.40;5.10;;;4.90;99.90;;;;;;5087312;28;20085;-68
2021/03/22 00:46:25;;;;;;;36.40;6.50;;;4.90;99.90;;;;;;5083154;28;20070;-67
2021/03/22 00:48:51;;;;;;;22.40;4.88;;;4.90;99.90;;;;;;5086503;28;20089;-67
2021/03/22 00:51:17;;;;;;;20.48;4.75;;;4.90;99.90;;;;;;5085239;28;20490;-67
2021/03/22 00:53:43;;;;;;;33.03;6.30;;;4.90;99.90;;;;;;5085187;28;20093;-68
2021/03/22 00:56:09;;;;;;;27.52;6.35;;;4.90;99.90;;;;;;5085102;28;20134;-68
2021/03/22 00:58:34;;;;;;;32.90;6.28;;;4.90;99.90;;;;;;5084529;28;20504;-66
2021/03/22 01:01:01;;;;;;;27.00;6.03;;;4.90;99.90;;;;;;5088626;28;20452;-66
2021/03/22 01:03:30;;;;;;;34.33;6.60;;;4.90;99.90;;;;;;5083420;28;20036;-66
2021/03/22 01:05:57;;;;;;;27.40;5.10;;;4.90;99.90;;;;;;5085396;28;20040;-66
2021/03/22 01:08:25;;;;;;;29.65;7.32;;;4.90;99.90;;;;;;5086278;28;20090;-66
2021/03/22 01:11:21;;;;;;;26.95;5.80;;;5.00;99.90;;;;;;5088029;28;20048;-66
2021/03/22 01:13:55;;;;;;;32.25;6.25;;;5.00;99.90;;;;;;5087723;28;20063;-66
2021/03/22 01:16:25;;;;;;;28.05;6.13;;;5.00;99.90;;;;;;5087498;28;20101;-67
2021/03/22 01:18:53;;;;;;;32.40;6.90;;;5.00;99.90;;;;;;5085917;28;20449;-66
2021/03/22 01:21:33;;;;;;;26.70;7.05;;;5.00;99.90;;;;;;5089016;28;20097;-67
2021/03/22 01:24:00;;;;;;;30.83;6.85;;;5.00;99.90;;;;;;5089033;28;20028;-66
2021/03/22 01:26:29;;;;;;;27.85;6.47;;;5.00;99.90;;;;;;5088068;28;20043;-66
2021/03/22 01:28:55;;;;;;;28.95;6.85;;;5.00;99.90;;;;;;5091750;28;20126;-66
2021/03/22 01:31:21;;;;;;;36.35;7.05;;;5.10;99.90;;;;;;5090259;28;20131;-66
2021/03/22 01:33:51;;;;;;;20.55;6.20;;;5.20;99.90;;;;;;5089760;28;20059;-66
2021/03/22 01:36:28;;;;;;;38.67;7.78;;;5.10;99.90;;;;;;5087815;28;20383;-66
2021/03/22 01:38:59;;;;;;;33.78;7.32;;;5.10;99.90;;;;;;5089779;28;20032;-67
2021/03/22 01:41:30;;;;;;;32.70;7.03;;;5.10;99.90;;;;;;5090121;28;20470;-66
2021/03/22 01:43:59;;;;;;;31.98;6.80;;;5.20;99.90;;;;;;5087330;28;20066;-67
2021/03/22 01:46:25;;;;;;;32.80;8.20;;;5.30;99.90;;;;;;5087788;28;20516;-67
2021/03/22 01:48:52;;;;;;;31.77;7.63;;;5.20;99.90;;;;;;5091586;28;20048;-66
2021/03/22 01:51:19;;;;;;;31.27;7.13;;;5.20;99.90;;;;;;5088441;28;20036;-67
2021/03/22 01:53:44;;;;;;;24.25;7.07;;;5.30;99.90;;;;;;5086788;28;20086;-67
2021/03/22 01:56:21;;;;;;;28.25;7.10;;;5.30;99.90;;;;;;5086835;28;20036;-67
2021/03/22 01:58:47;;;;;;;24.50;6.80;;;5.30;99.90;;;;;;5086638;28;20098;-67
2021/03/22 02:01:13;;;;;;;23.95;6.20;;;5.30;99.90;;;;;;5088628;28;20034;-67
2021/03/22 02:03:39;;;;;;;34.60;6.85;;;5.30;99.90;;;;;;5088014;28;20044;-67
2021/03/22 02:06:05;;;;;;;24.92;6.57;;;5.40;99.90;;;;;;5088127;28;20043;-66
2021/03/22 02:08:35;;;;;;;34.35;7.78;;;5.40;99.90;;;;;;5090668;28;20036;-67
2021/03/22 02:11:00;;;;;;;23.08;6.03;;;5.40;99.90;;;;;;5088022;28;20163;-66
2021/03/22 02:13:35;;;;;;;31.05;6.75;;;5.40;99.90;;;;;;5090306;28;20127;-67
2021/03/22 02:16:29;;;;;;;28.88;6.47;;;5.40;99.90;;;;;;5084984;28;20773;-66
2021/03/22 02:19:28;;;;;;;22.65;6.15;;;5.40;99.90;;;;;;5088274;28;20109;-66
2021/03/22 02:22:31;;;;;;;24.25;6.20;;;5.40;99.90;;;;;;5085403;28;20111;-66
2021/03/22 02:25:20;;;;;;;28.95;6.50;;;5.40;99.90;;;;;;5084770;28;20051;-66
2021/03/22 02:28:30;;;;;;;32.28;6.22;;;5.40;99.90;;;;;;5086844;28;20477;-66
2021/03/22 02:31:02;;;;;;;28.85;6.97;;;5.40;99.90;;;;;;5065776;28;20055;-67
2021/03/22 02:33:46;;;;;;;31.63;6.28;;;5.40;99.90;;;;;;5089068;28;20040;-67
2021/03/22 02:36:18;;;;;;;30.92;7.13;;;5.50;99.90;;;;;;5085738;28;20044;-67
2021/03/22 02:38:49;;;;;;;28.80;6.68;;;5.50;99.90;;;;;;5085980;28;20044;-67
2021/03/22 02:41:30;;;;;;;28.80;6.45;;;5.50;99.90;;;;;;5087340;28;20077;-67
2021/03/22 02:44:08;;;;;;;22.23;5.35;;;5.50;99.90;;;;;;5088107;28;20107;-67
2021/03/22 02:46:35;;;;;;;29.33;8.20;;;5.60;99.90;;;;;;5085488;28;20047;-66
2021/03/22 02:49:04;;;;;;;31.92;6.25;;;5.50;99.90;;;;;;5086481;28;20036;-67
2021/03/22 02:52:12;;;;;;;28.58;6.50;;;5.50;99.90;;;;;;5082853;28;20551;-67
2021/03/22 02:54:57;;;;;;;24.73;5.75;;;5.50;99.90;;;;;;5088117;28;20036;-67
2021/03/22 02:57:49;;;;;;;28.40;5.45;;;5.50;99.90;;;;;;5085072;28;20040;-67
2021/03/22 03:00:20;;;;;;;25.88;5.60;;;5.50;99.90;;;;;;5088441;28;20036;-67
2021/03/22 03:02:48;;;;;;;29.88;6.35;;;5.50;99.90;;;;;;5089358;28;20521;-67
2021/03/22 03:05:22;;;;;;;22.90;5.43;;;5.50;99.90;;;;;;5084856;28;20043;-67
2021/03/22 03:07:48;;;;;;;21.85;5.28;;;5.60;99.90;;;;;;5116034;27;20071;-67
2021/03/22 03:10:18;;;;;;;30.08;5.85;;;5.50;99.90;;;;;;5087820;28;20107;-66
2021/03/22 03:12:44;;;;;;;19.60;4.43;;;5.50;99.90;;;;;;5088315;28;20124;-67
2021/03/22 03:15:14;;;;;;;19.00;3.55;;;5.50;99.90;;;;;;5086310;28;20047;-67
2021/03/22 03:17:39;;;;;;;13.90;3.10;;;5.50;99.90;;;;;;5088429;28;20039;-66
2021/03/22 03:20:10;;;;;;;13.15;2.38;;;5.50;99.90;;;;;;5089063;28;20040;-67
2021/03/22 03:22:37;;;;;;;20.23;2.90;;;5.50;99.90;;;;;;5086710;28;20056;-67
2021/03/22 03:25:05;;;;;;;10.77;1.83;;;5.50;99.90;;;;;;5087665;28;20157;-67
2021/03/22 03:27:31;;;;;;;12.68;2.08;;;5.50;99.90;;;;;;5085150;28;20115;-67
2021/03/22 03:29:56;;;;;;;9.65;1.98;;;5.50;99.90;;;;;;5088304;28;20114;-67
2021/03/22 03:32:22;;;;;;;18.35;2.60;;;5.50;99.90;;;;;;5086969;28;20040;-67
2021/03/22 03:34:48;;;;;;;13.60;2.85;;;5.50;99.90;;;;;;5084921;28;20402;-66
2021/03/22 03:37:14;;;;;;;10.75;2.10;;;5.50;99.90;;;;;;5084254;28;20159;-66
2021/03/22 03:39:40;;;;;;;14.77;1.92;;;5.50;99.90;;;;;;5085337;28;20048;-66
2021/03/22 03:42:08;;;;;;;21.35;2.72;;;5.50;99.90;;;;;;5082994;28;20394;-67
2021/03/22 03:44:35;;;;;;;18.35;2.03;;;5.50;99.90;;;;;;5086592;28;20116;-67
2021/03/22 03:47:01;;;;;;;13.35;2.08;;;5.50;99.90;;;;;;5088480;28;20113;-66
2021/03/22 03:49:27;;;;;;;13.32;1.70;;;5.50;99.90;;;;;;5085244;28;21203;-67
2021/03/22 03:51:53;;;;;;;20.60;2.15;;;5.50;99.90;;;;;;5083426;28;20044;-67
2021/03/22 03:54:20;;;;;;;14.85;2.65;;;5.50;99.90;;;;;;5085204;28;20036;-66
2021/03/22 03:56:45;;;;;;;10.00;1.70;;;5.40;99.90;;;;;;5088764;28;20644;-67
2021/03/22 03:59:11;;;;;;;17.92;2.28;;;5.50;99.90;;;;;;5084958;28;20036;-66
2021/03/22 04:01:37;;;;;;;17.23;2.08;;;5.40;99.90;;;;;;5087144;28;20064;-67
2021/03/22 04:04:03;;;;;;;12.18;2.25;;;5.40;99.90;;;;;;5089257;28;20036;-67
2021/03/22 04:06:31;;;;;;;12.40;1.58;;;5.50;99.90;;;;;;5084106;28;20044;-66
2021/03/22 04:09:07;;;;;;;13.20;2.53;;;5.50;99.90;;;;;;5085168;28;20052;-67
2021/03/22 04:11:34;;;;;;;;;;;5.50;99.90;;;;;;5084499;28;20039;-66
2021/03/22 04:14:01;;;;;;;12.45;2.33;;;5.40;99.90;;;;;;5086425;28;19916;-66
2021/03/22 04:16:28;;;;;;;15.60;2.00;;;5.40;99.90;;;;;;5086620;28;20036;-66
2021/03/22 04:18:54;;;;;;;12.73;2.45;;;5.40;99.90;;;;;;5088004;28;20147;-66
2021/03/22 04:21:24;;;;;;;14.23;1.65;;;5.50;99.90;;;;;;5082954;28;20119;-67
2021/03/22 04:23:51;;;;;;;15.05;1.65;;;5.40;99.90;;;;;;5086816;28;20051;-67
2021/03/22 04:26:18;;;;;;;17.13;2.83;;;5.40;99.90;;;;;;5087282;28;20119;-67
2021/03/22 04:28:44;;;;;;;10.90;1.58;;;5.40;99.90;;;;;;5085897;28;20123;-67
2021/03/22 04:31:13;;;;;;;20.80;3.83;;;5.40;99.90;;;;;;5087799;28;20469;-67
2021/03/22 04:33:38;;;;;;;15.55;1.95;;;5.40;99.90;;;;;;5085382;28;20086;-67
2021/03/22 04:36:05;;;;;;;10.68;1.65;;;5.40;99.90;;;;;;5083844;28;20044;-66
2021/03/22 04:38:32;;;;;;;15.88;1.75;;;5.40;99.90;;;;;;5086410;28;20083;-66
2021/03/22 04:40:57;;;;;;;8.02;1.25;;;5.40;99.90;;;;;;5085397;28;20409;-67
2021/03/22 04:43:23;;;;;;;18.48;1.52;;;5.40;99.90;;;;;;5085600;28;20032;-66
2021/03/22 04:45:49;;;;;;;10.40;1.30;;;5.40;99.90;;;;;;5091025;28;20405;-66
2021/03/22 04:48:15;;;;;;;10.38;1.23;;;5.40;99.90;;;;;;5090975;28;20032;-67
2021/03/22 04:50:42;;;;;;;11.15;1.60;;;5.40;99.90;;;;;;5088807;28;20037;-67
2021/03/22 04:53:08;;;;;;;14.00;2.33;;;5.40;99.90;;;;;;5089133;28;20119;-66
2021/03/22 04:55:34;;;;;;;16.08;3.22;;;5.40;99.90;;;;;;5090566;28;20044;-67
2021/03/22 04:58:00;;;;;;;14.05;2.03;;;5.40;99.90;;;;;;5088750;28;20028;-67
2021/03/22 05:00:32;;;;;;;12.80;1.40;;;5.30;99.90;;;;;;5090484;28;20032;-67
2021/03/22 05:02:58;;;;;;;10.40;1.27;;;5.40;99.90;;;;;;5090654;28;20089;-67
2021/03/22 05:05:26;;;;;;;15.63;1.52;;;5.40;99.90;;;;;;5090597;28;20036;-67
2021/03/22 05:07:52;;;;;;;8.93;1.20;;;5.40;99.90;;;;;;5086748;28;20119;-67
2021/03/22 05:10:33;;;;;;;16.52;2.00;;;5.40;99.90;;;;;;5092457;28;20043;-67
2021/03/22 05:12:59;;;;;;;14.10;2.38;;;5.30;99.90;;;;;;5091324;28;20078;-67
2021/03/22 05:15:25;;;;;;;8.07;1.55;;;5.30;99.90;;;;;;5092027;28;20071;-67
2021/03/22 05:17:51;;;;;;;9.57;2.78;;;5.30;99.90;;;;;;5092188;28;20544;-66
2021/03/22 05:20:39;;;;;;;10.23;1.13;;;5.30;99.90;;;;;;5089760;28;20035;-67
2021/03/22 05:23:11;;;;;;;10.02;1.33;;;5.30;99.90;;;;;;5092325;28;20041;-67
2021/03/22 05:25:37;;;;;;;9.60;1.35;;;5.30;99.90;;;;;;5091489;28;20130;-66
2021/03/22 05:28:05;;;;;;;10.93;1.65;;;5.30;99.90;;;;;;5091750;28;20040;-66
2021/03/22 05:30:30;;;;;;;9.07;1.40;;;5.30;99.90;;;;;;5090450;28;20079;-66
2021/03/22 05:32:58;;;;;;;12.65;1.88;;;5.30;99.90;;;;;;5088406;28;20051;-66
2021/03/22 05:35:25;;;;;;;8.15;1.08;;;5.20;99.90;;;;;;5088150;28;20048;-66
2021/03/22 05:37:51;;;;;;;12.60;1.75;;;5.30;99.90;;;;;;5087266;28;20151;-67
2021/03/22 05:40:35;;;;;;;4.13;0.77;;;5.30;99.90;;;;;;5086466;28;20044;-66
2021/03/22 05:43:15;;;;;;;12.98;1.58;;;5.30;99.90;;;;;;5089909;28;20059;-67
2021/03/22 05:46:10;;;;;;;14.38;1.95;;;5.30;99.90;;;;;;5085510;28;20260;-66
2021/03/22 05:49:03;;;;;;;9.88;1.48;;;5.30;99.90;;;;;;5086093;28;20052;-67
2021/03/22 05:52:09;;;;;;;9.63;1.55;;;5.30;99.90;;;;;;5090747;28;20035;-66
2021/03/22 05:54:53;;;;;;;16.48;1.45;;;5.30;99.90;;;;;;5087079;28;20055;-66
2021/03/22 05:57:28;;;;;;;12.07;1.95;;;5.30;99.90;;;;;;5085728;28;20028;-67
2021/03/22 06:00:21;;;;;;;17.15;2.00;;;5.30;99.90;;;;;;5089128;28;20132;-67
2021/03/22 06:03:01;;;;;;;14.15;2.50;;;5.30;99.90;;;;;;5087960;28;20043;-66
2021/03/22 06:05:32;;;;;;;10.90;2.15;;;5.40;99.90;;;;;;5087875;28;20047;-66
2021/03/22 06:08:12;;;;;;;11.00;1.80;;;5.30;99.90;;;;;;5089902;28;20078;-67
2021/03/22 06:10:44;;;;;;;12.80;1.90;;;5.40;99.90;;;;;;5088432;28;20109;-66
2021/03/22 06:13:10;;;;;;;10.93;1.90;;;5.30;99.90;;;;;;5089949;28;20049;-67
2021/03/22 06:15:59;;;;;;;9.98;1.63;;;5.40;99.90;;;;;;5087518;28;20038;-66
2021/03/22 06:18:35;;;;;;;14.50;1.88;;;5.40;99.90;;;;;;5089659;28;20046;-67
2021/03/22 06:21:13;;;;;;;8.88;1.92;;;5.40;99.90;;;;;;5090690;28;20437;-66
2021/03/22 06:23:45;;;;;;;13.27;1.88;;;5.40;99.90;;;;;;5089488;28;20115;-66
2021/03/22 06:26:25;;;;;;;9.02;1.27;;;5.40;99.90;;;;;;5089759;28;20040;-66
2021/03/22 06:28:56;;;;;;;7.93;1.33;;;5.40;99.90;;;;;;5088776;28;20068;-66
2021/03/22 06:31:23;;;;;;;11.30;1.55;;;5.50;99.90;;;;;;5089488;28;20393;-66
2021/03/22 06:33:53;;;;;;;6.20;1.30;;;5.50;99.90;;;;;;5087674;28;20091;-66
2021/03/22 06:36:22;;;;;;;14.13;1.60;;;5.50;99.90;;;;;;5087162;28;20068;-66
2021/03/22 06:38:53;;;;;;;25.05;3.95;;;5.50;99.90;;;;;;5089146;28;20036;-66
2021/03/22 06:41:37;;;;;;;7.57;1.50;;;5.60;99.90;;;;;;5087793;28;20055;-66
2021/03/22 06:44:10;;;;;;;23.35;1.95;;;5.60;99.90;;;;;;5090096;28;20040;-67
2021/03/22 06:47:03;;;;;;;9.82;1.98;;;5.60;99.90;;;;;;5084889;28;20044;-67
2021/03/22 06:49:41;;;;;;;9.52;1.60;;;5.60;99.90;;;;;;5085925;28;20405;-66
2021/03/22 06:52:13;;;;;;;10.77;1.73;;;5.60;99.90;;;;;;5087590;28;20055;-67
2021/03/22 06:54:45;;;;;;;7.43;1.13;;;5.70;99.90;;;;;;5088670;28;20032;-66
2021/03/22 06:57:12;;;;;;;9.43;1.90;;;5.60;99.90;;;;;;5088425;28;20044;-67
2021/03/22 06:59:39;;;;;;;9.20;1.63;;;5.60;99.90;;;;;;5086545;28;20044;-67
2021/03/22 07:02:46;;;;;;;9.48;1.48;;;5.70;99.90;;;;;;5083991;28;20111;-67
2021/03/22 07:05:28;;;;;;;10.15;2.20;;;5.70;99.90;;;;;;5085301;28;20043;-67
2021/03/22 07:08:10;;;;;;;14.45;1.77;;;5.80;99.90;;;;;;5084452;28;21415;-67
2021/03/22 07:11:03;;;;;;;13.63;1.83;;;5.70;99.90;;;;;;5085785;28;20040;-67
2021/03/22 07:13:30;;;;;;;14.88;1.60;;;5.80;99.90;;;;;;5086201;28;20471;-67
2021/03/22 07:16:05;;;;;;;9.95;1.92;;;5.80;99.90;;;;;;5085500;28;20082;-67
2021/03/22 07:18:32;;;;;;;9.20;1.88;;;5.70;99.90;;;;;;5087000;28;20459;-68
2021/03/22 07:21:04;;;;;;;8.10;1.42;;;5.80;99.90;;;;;;5087461;28;20036;-68
2021/03/22 07:23:45;;;;;;;13.43;1.70;;;5.60;99.90;;;;;;5084865;28;20040;-68
2021/03/22 07:26:17;;;;;;;4.50;1.42;;;5.80;99.90;;;;;;5088029;28;20046;-68
2021/03/22 07:29:07;;;;;;;8.10;1.27;;;5.90;99.90;;;;;;5087397;28;20082;-68
2021/03/22 07:32:06;;;;;;;7.40;1.63;;;6.20;99.90;;;;;;5089261;28;20085;-68
2021/03/22 07:34:59;;;;;;;5.00;1.05;;;6.30;99.90;;;;;;5090990;28;20036;-68
2021/03/22 07:37:32;;;;;;;6.25;1.38;;;6.40;99.90;;;;;;5088666;28;20113;-68
2021/03/22 07:40:11;;;;;;;8.63;1.70;;;6.30;99.90;;;;;;5088013;28;20039;-68
2021/03/22 07:43:11;;;;;;;11.63;1.38;;;6.50;99.90;;;;;;5089314;28;20036;-68
2021/03/22 07:45:53;;;;;;;9.77;1.52;;;6.40;99.90;;;;;;5085750;28;20044;-67
2021/03/22 07:48:56;;;;;;;7.25;1.60;;;6.50;99.90;;;;;;5086957;28;20123;-68
2021/03/22 07:51:28;;;;;;;5.90;1.00;;;6.60;99.90;;;;;;5083882;28;20028;-68
2021/03/22 07:54:09;;;;;;;7.35;1.80;;;6.80;99.90;;;;;;5084364;28;20047;-68
2021/03/22 07:56:50;;;;;;;4.80;0.85;;;7.00;99.90;;;;;;5085125;28;20039;-68
2021/03/22 07:59:46;;;;;;;7.15;0.98;;;7.20;99.90;;;;;;5085999;28;20099;-68
2021/03/22 08:02:54;;;;;;;6.43;1.10;;;7.40;99.90;;;;;;5087925;28;20054;-68
2021/03/22 08:06:04;;;;;;;10.38;1.85;;;7.40;99.90;;;;;;5086062;28;20533;-68
2021/03/22 08:08:45;;;;;;;6.78;0.77;;;7.40;99.90;;;;;;5035728;28;20088;-68
2021/03/22 08:11:26;;;;;;;7.15;1.65;;;7.30;99.90;;;;;;5112928;28;20041;-68
2021/03/22 08:14:25;;;;;;;8.38;1.17;;;7.20;99.90;;;;;;5086294;28;20326;-68
2021/03/22 08:17:17;;;;;;;4.07;0.73;;;7.20;99.90;;;;;;5065223;28;20139;-68
2021/03/22 08:20:01;;;;;;;7.15;1.00;;;7.10;99.90;;;;;;5090220;28;20090;-68
2021/03/22 08:22:54;;;;;;;7.10;0.80;;;7.20;99.90;;;;;;5090868;28;20032;-68
2021/03/22 08:25:27;;;;;;;6.80;0.90;;;7.00;99.90;;;;;;5087539;28;20363;-68
2021/03/22 08:28:05;;;;;;;6.32;1.02;;;7.10;99.90;;;;;;5092958;28;20036;-68
2021/03/22 08:30:38;;;;;;;7.68;1.13;;;7.10;99.90;;;;;;5091480;28;20063;-68
2021/03/22 08:33:19;;;;;;;11.95;0.98;;;7.30;99.90;;;;;;5091535;28;20440;-68
2021/03/22 08:35:55;;;;;;;5.47;0.70;;;7.40;99.90;;;;;;5091511;28;20079;-68
2021/03/22 08:38:42;;;;;;;4.88;0.70;;;7.60;99.90;;;;;;5093211;28;20039;-68
2021/03/22 08:41:32;;;;;;;5.15;0.60;;;7.80;99.90;;;;;;5092533;28;20052;-68
2021/03/22 08:44:19;;;;;;;6.13;0.90;;;7.70;99.90;;;;;;5090619;28;20080;-68
2021/03/22 08:47:02;;;;;;;7.68;0.95;;;7.90;99.90;;;;;;5092108;28;20142;-68
2021/03/22 08:49:46;;;;;;;6.65;0.88;;;8.20;99.90;;;;;;5092775;28;20036;-68
2021/03/22 08:52:48;;;;;;;4.05;0.70;;;8.60;99.90;;;;;;5089489;28;20036;-68
2021/03/22 08:55:19;;;;;;;6.57;1.05;;;9.30;99.90;;;;;;5077582;28;20391;-68
2021/03/22 08:57:53;;;;;;;5.90;0.80;;;10.10;99.30;;;;;;5085870;28;20043;-68
2021/03/22 09:00:47;;;;;;;4.13;0.38;;;10.40;96.70;;;;;;5087120;28;20168;-68
2021/03/22 09:03:13;;;;;;;3.42;0.52;;;10.30;95.40;;;;;;5084350;28;20068;-68
2021/03/22 09:05:41;;;;;;;4.47;0.43;;;10.10;96.10;;;;;;5085638;28;20074;-68
2021/03/22 09:08:21;;;;;;;4.45;0.60;;;10.00;95.00;;;;;;5094920;27;20040;-68
2021/03/22 09:10:50;;;;;;;2.20;0.30;;;9.80;94.30;;;;;;5108148;27;20530;-67
2021/03/22 09:13:28;;;;;;;1.77;0.35;;;9.60;94.10;;;;;;5085617;28;21339;-68
2021/03/22 09:16:41;;;;;;;6.85;0.40;;;9.30;93.00;;;;;;5083710;28;20038;-68
2021/03/22 09:19:10;;;;;;;6.80;0.35;;;9.20;93.80;;;;;;5056258;28;20098;-68
2021/03/22 09:21:59;;;;;;;5.25;1.67;;;9.00;93.80;;;;;;5080848;28;20040;-67
2021/03/22 09:27:24;;;;;;;9.52;1.00;;;8.70;94.90;;;;;;5084109;28;20527;-68
2021/03/22 09:29:50;;;;;;;3.88;0.65;;;8.70;94.70;;;;;;5085874;28;20086;-68
2021/03/22 09:32:28;;;;;;;4.57;0.55;;;8.40;94.60;;;;;;5083459;28;20044;-67
2021/03/22 09:34:59;;;;;;;5.07;0.80;;;8.40;95.50;;;;;;5085193;28;20425;-67
2021/03/22 09:37:51;;;;;;;6.88;1.17;;;8.30;96.00;;;;;;5085518;28;20035;-67
2021/03/22 09:40:23;;;;;;;4.13;0.95;;;8.20;96.10;;;;;;5088273;28;21028;-68
2021/03/22 09:43:07;;;;;;;5.57;0.70;;;8.20;96.50;;;;;;5089614;28;20124;-67
2021/03/22 09:45:54;;;;;;;6.50;1.17;;;8.10;96.20;;;;;;5084307;28;20078;-67
2021/03/22 09:48:33;;;;;;;6.95;0.68;;;8.00;96.60;;;;;;5086003;28;20558;-67
2021/03/22 09:51:04;;;;;;;4.28;0.93;;;8.00;96.60;;;;;;5084322;28;20035;-67
2021/03/22 09:53:51;;;;;;;3.88;0.75;;;8.00;95.80;;;;;;5085002;28;20217;-67
2021/03/22 09:56:31;;;;;;;7.63;1.20;;;8.00;96.50;;;;;;5088577;28;20047;-67
2021/03/22 09:59:22;;;;;;;5.65;0.82;;;8.00;96.60;;;;;;5089286;28;20039;-67
2021/03/22 10:01:48;;;;;;;5.88;0.73;;;8.00;96.90;;;;;;5083481;28;20040;-67
2021/03/22 10:04:17;;;;;;;4.47;0.60;;;8.10;97.00;;;;;;5103262;28;20500;-67
2021/03/22 10:06:54;;;;;;;3.58;0.47;;;8.20;97.00;;;;;;5083223;28;20068;-67
2021/03/22 10:09:26;;;;;;;3.67;0.57;;;8.30;96.90;;;;;;5082786;28;20048;-67
2021/03/22 10:11:55;;;;;;;7.65;1.70;;;8.30;96.60;;;;;;5085010;28;20048;-67
2021/03/22 10:14:37;;;;;;;4.13;1.08;;;8.40;96.30;;;;;;5083902;28;20118;-67
2021/03/22 10:17:06;;;;;;;6.28;0.65;;;8.50;96.50;;;;;;5085960;28;20067;-67
2021/03/22 10:19:36;;;;;;;4.57;0.43;;;8.60;96.40;;;;;;5083921;28;20036;-67
2021/03/22 10:22:19;;;;;;;7.00;0.60;;;8.50;94.90;;;;;;5084806;28;20040;-67
2021/03/22 10:24:55;;;;;;;3.45;0.50;;;8.60;95.40;;;;;;5085324;28;20040;-67
2021/03/22 10:27:23;;;;;;;7.10;0.95;;;8.50;94.90;;;;;;5082762;28;20040;-67
2021/03/22 10:29:49;;;;;;;4.07;0.40;;;8.50;95.00;;;;;;5083921;28;20067;-67
2021/03/22 10:32:24;;;;;;;5.72;0.63;;;8.50;94.80;;;;;;5085417;28;20489;-67
2021/03/22 10:34:53;;;;;;;6.20;0.65;;;8.40;94.50;;;;;;5087766;28;20072;-67
2021/03/22 10:37:33;;;;;;;13.32;1.05;;;8.40;95.30;;;;;;5086771;28;20105;-67
2021/03/22 10:40:02;;;;;;;5.20;0.70;;;8.50;95.50;;;;;;5090200;28;20111;-67
2021/03/22 10:42:33;;;;;;;7.05;0.77;;;8.60;95.80;;;;;;5088563;28;20036;-67
2021/03/22 10:44:59;;;;;;;4.10;0.88;;;8.70;95.70;;;;;;5089060;28;20032;-67
2021/03/22 10:47:29;;;;;;;6.03;0.77;;;8.70;95.90;;;;;;5084159;28;20474;-67
2021/03/22 10:50:20;;;;;;;3.63;0.57;;;8.80;95.50;;;;;;5083593;28;20438;-68
2021/03/22 10:53:02;;;;;;;5.53;0.60;;;8.80;94.90;;;;;;5084297;28;20055;-66
2021/03/22 10:55:29;;;;;;;7.65;0.85;;;8.80;94.70;;;;;;5083385;28;20036;-66
2021/03/22 10:57:56;;;;;;;6.18;0.75;;;8.70;93.50;;;;;;5084178;28;20059;-66
2021/03/22 11:00:42;;;;;;;4.55;0.60;;;8.60;94.10;;;;;;5084021;28;20047;-67
2021/03/22 11:03:09;;;;;;;4.00;0.60;;;8.60;94.40;;;;;;5083058;28;20044;-67
2021/03/22 11:05:41;;;;;;;6.88;0.95;;;8.50;94.60;;;;;;5084113;28;20057;-68
2021/03/22 11:08:19;;;;;;;7.85;0.93;;;8.60;94.80;;;;;;5081881;28;20032;-67
2021/03/22 11:10:46;;;;;;;7.38;0.90;;;8.50;95.10;;;;;;5081739;28;20083;-67
2021/03/22 11:13:18;;;;;;;6.78;1.00;;;8.40;95.20;;;;;;5082716;28;20063;-67
2021/03/22 11:15:48;;;;;;;4.00;0.70;;;8.40;95.00;;;;;;5100894;28;20051;-67
2021/03/22 11:18:19;;;;;;;6.22;0.73;;;8.50;95.70;;;;;;5081258;28;20052;-68
2021/03/22 11:20:49;;;;;;;5.57;0.70;;;8.50;95.50;;;;;;5082665;28;20059;-68
2021/03/22 11:23:26;;;;;;;3.90;0.60;;;8.50;95.50;;;;;;5086579;28;20028;-67
2021/03/22 11:25:54;;;;;;;8.35;0.70;;;8.50;95.60;;;;;;5088105;28;20044;-67
2021/03/22 11:28:20;;;;;;;13.50;1.42;;;8.50;95.20;;;;;;5083008;28;20045;-68
2021/03/22 11:30:51;;;;;;;4.30;1.02;;;8.60;94.70;;;;;;5084466;28;20619;-67
2021/03/22 11:33:25;;;;;;;7.43;1.38;;;8.60;94.40;;;;;;5082516;28;20403;-68
2021/03/22 11:36:11;;;;;;;6.63;1.60;;;8.60;94.40;;;;;;5081781;28;20040;-68
2021/03/22 11:38:47;;;;;;;6.20;0.63;;;8.60;93.50;;;;;;5082614;28;20044;-67
2021/03/22 11:41:40;;;;;;;9.43;0.95;;;8.60;93.20;;;;;;5082559;28;20708;-67
2021/03/22 11:44:39;;;;;;;10.43;1.05;;;8.60;93.30;;;;;;5084448;28;20063;-67
2021/03/22 11:47:40;;;;;;;6.68;0.98;;;8.60;93.40;;;;;;5084698;28;20044;-68
2021/03/22 11:50:22;;;;;;;7.65;1.25;;;8.60;94.00;;;;;;5087054;28;20086;-67
2021/03/22 11:53:01;;;;;;;11.57;1.30;;;8.60;94.30;;;;;;5083634;28;21736;-67
2021/03/22 11:55:42;;;;;;;9.68;1.48;;;8.60;94.50;;;;;;5088156;28;21220;-68
2021/03/22 11:58:37;;;;;;;8.07;1.40;;;8.70;94.50;;;;;;5086672;28;20440;-67
2021/03/22 12:01:25;;;;;;;9.57;1.65;;;8.70;94.00;;;;;;5087253;28;20039;-67
2021/03/22 12:04:11;;;;;;;4.80;0.82;;;8.80;94.50;;;;;;5086996;28;20097;-67
2021/03/22 12:06:55;;;;;;;;;;;8.80;93.90;;;;;;5089068;28;20067;-67
2021/03/22 12:09:22;;;;;;;9.15;1.25;;;8.80;92.60;;;;;;5118295;28;20016;-68
2021/03/22 12:11:50;;;;;;;6.88;0.80;;;8.80;92.90;;;;;;5089898;28;20093;-68
2021/03/22 12:14:15;;;;;;;5.50;0.85;;;8.90;93.00;;;;;;5086988;28;20054;-68
2021/03/22 12:16:41;;;;;;;5.55;0.77;;;8.90;92.30;;;;;;5082103;28;20478;-68
2021/03/22 12:19:20;;;;;;;5.75;0.90;;;8.90;92.30;;;;;;5084562;28;20041;-67
2021/03/22 12:21:46;;;;;;;9.68;1.30;;;8.90;92.80;;;;;;5087541;28;20113;-68
2021/03/22 12:24:15;;;;;;;7.25;0.93;;;8.90;93.00;;;;;;5085788;28;20490;-68
2021/03/22 12:26:41;;;;;;;4.47;0.95;;;8.90;92.40;;;;;;5084466;28;20116;-68
2021/03/22 12:29:07;;;;;;;3.25;0.75;;;8.90;92.10;;;;;;5085987;28;20040;-67
2021/03/22 12:31:35;;;;;;;4.53;0.68;;;8.80;92.30;;;;;;5087751;28;20093;-67
2021/03/22 12:34:06;;;;;;;4.03;0.77;;;8.80;92.30;;;;;;5087419;28;20064;-67
2021/03/22 12:36:35;;;;;;;4.82;0.75;;;8.80;91.80;;;;;;5082318;28;20032;-67
2021/03/22 12:39:22;;;;;;;6.10;1.15;;;8.90;91.70;;;;;;5097567;28;20048;-68
2021/03/22 12:41:52;;;;;;;4.53;0.90;;;8.90;91.60;;;;;;5082535;28;20032;-68
2021/03/22 12:44:19;;;;;;;3.97;0.50;;;8.90;91.90;;;;;;5086379;28;20702;-68
2021/03/22 12:46:44;;;;;;;5.35;0.47;;;9.00;91.70;;;;;;5112995;27;20059;-67
2021/03/22 12:49:13;;;;;;;4.90;0.60;;;9.00;92.00;;;;;;5083327;28;20604;-67
2021/03/22 12:51:38;;;;;;;4.65;1.05;;;9.00;92.10;;;;;;5086670;28;20040;-67
2021/03/22 12:54:04;;;;;;;4.40;0.50;;;9.00;92.10;;;;;;5085927;28;20051;-67
2021/03/22 12:56:30;;;;;;;3.85;0.50;;;9.00;92.10;;;;;;5079660;28;20146;-68
2021/03/22 12:58:57;;;;;;;6.13;0.60;;;9.00;92.10;;;;;;5081265;28;20519;-67
2021/03/22 13:01:24;;;;;;;3.40;0.40;;;9.10;91.90;;;;;;5084653;28;20522;-68
2021/03/22 13:03:51;;;;;;;5.32;0.60;;;9.20;91.50;;;;;;5086971;28;20111;-68
2021/03/22 13:06:19;;;;;;;5.55;0.90;;;9.10;91.30;;;;;;5086226;28;20043;-68
2021/03/22 13:08:46;;;;;;;3.28;1.02;;;9.20;91.40;;;;;;5085379;28;20036;-67
2021/03/22 13:11:14;;;;;;;2.80;0.47;;;9.20;90.40;;;;;;5086644;28;20478;-67
2021/03/22 13:13:40;;;;;;;2.25;0.30;;;9.20;91.20;;;;;;5088771;28;20079;-68
2021/03/22 13:16:06;;;;;;;5.40;0.60;;;9.20;90.70;;;;;;5087794;28;20129;-67
2021/03/22 13:18:34;;;;;;;2.90;0.38;;;9.20;90.40;;;;;;5092093;28;20432;-68
2021/03/22 13:21:10;;;;;;;5.18;1.10;;;9.20;90.60;;;;;;5090768;28;20040;-68
2021/03/22 13:23:37;;;;;;;4.32;0.68;;;9.20;91.20;;;;;;5090183;28;20036;-67
2021/03/22 13:26:04;;;;;;;5.10;1.05;;;9.20;91.30;;;;;;5091469;28;20044;-68
2021/03/22 13:28:32;;;;;;;6.18;0.57;;;9.20;91.50;;;;;;5084802;28;20099;-67
2021/03/22 13:31:02;;;;;;;2.00;0.50;;;9.20;90.70;;;;;;5084759;28;20147;-67